sensor_id;sensor_type;location;lat;lon;timestamp;pressure;altitude;pressure_sealevel;temperature;humidity
8049;BME280;20935;42.660;23.342;2023-02-16T00:00:53;95997.88;;;-0.84;100.00
8049;BME280;20935;42.660;23.342;2023-02-16T00:03:38;95994.53;;;-0.89;100.00
8049;BME280;20935;42.660;23.342;2023-02-16T00:06:25;95991.75;;;-0.66;100.00
8049;BME280;20935;42.660;23.342;2023-02-16T00:09:10;95990.00;;;-0.57;100.00
8049;BME280;20935;42.660;23.342;2023-02-16T00:11:56;95997.69;;;-0.74;100.00
8049;BME280;20935;42.660;23.342;2023-02-16T00:15:01;95988.75;;;-0.45;100.00
8049;BME280;20935;42.660;23.342;2023-02-16T00:17:46;95991.44;;;-0.78;100.00
8049;BME280;20935;42.660;23.342;2023-02-16T00:20:32;95988.81;;;-0.78;100.00
8049;BME280;20935;42.660;23.342;2023-02-16T00:23:20;95982.97;;;-0.88;100.00
8049;BME280;20935;42.660;23.342;2023-02-16T00:26:12;95991.31;;;-0.86;100.00
8049;BME280;20935;42.660;23.342;2023-02-16T00:28:59;95989.56;;;-0.91;100.00
8049;BME280;20935;42.660;23.342;2023-02-16T00:31:46;95991.47;;;-0.23;100.00
8049;BME280;20935;42.660;23.342;2023-02-16T00:34:36;95986.59;;;-0.16;100.00
8049;BME280;20935;42.660;23.342;2023-02-16T00:37:21;95990.22;;;-0.12;100.00
8049;BME280;20935;42.660;23.342;2023-02-16T00:40:07;95993.41;;;-0.70;100.00
8049;BME280;20935;42.660;23.342;2023-02-16T00:42:53;95998.06;;;-0.80;100.00
8049;BME280;20935;42.660;23.342;2023-02-16T00:45:38;95986.28;;;-0.56;100.00
8049;BME280;20935;42.660;23.342;2023-02-16T00:48:25;95978.97;;;-0.86;100.00
8049;BME280;20935;42.660;23.342;2023-02-16T00:51:11;95987.34;;;-0.84;100.00
8049;BME280;20935;42.660;23.342;2023-02-16T00:53:57;95989.22;;;-0.71;100.00
8049;BME280;20935;42.660;23.342;2023-02-16T00:56:43;95989.09;;;-0.79;100.00
8049;BME280;20935;42.660;23.342;2023-02-16T00:59:31;95980.50;;;-0.99;100.00
8049;BME280;20935;42.660;23.342;2023-02-16T01:02:17;95983.50;;;-0.91;100.00
8049;BME280;20935;42.660;23.342;2023-02-16T01:05:04;95985.09;;;-0.90;100.00
8049;BME280;20935;42.660;23.342;2023-02-16T01:07:49;95976.25;;;-0.81;100.00
8049;BME280;20935;42.660;23.342;2023-02-16T01:10:53;95978.66;;;-0.98;100.00
8049;BME280;20935;42.660;23.342;2023-02-16T01:13:55;95975.44;;;-0.95;100.00
8049;BME280;20935;42.660;23.342;2023-02-16T01:16:41;95973.38;;;-1.12;100.00
8049;BME280;20935;42.660;23.342;2023-02-16T01:19:27;95968.72;;;-1.01;100.00
8049;BME280;20935;42.660;23.342;2023-02-16T01:22:15;95970.50;;;-1.15;100.00
8049;BME280;20935;42.660;23.342;2023-02-16T01:25:01;95960.56;;;-1.32;100.00
8049;BME280;20935;42.660;23.342;2023-02-16T01:27:46;95957.31;;;-1.10;100.00
8049;BME280;20935;42.660;23.342;2023-02-16T01:30:32;95957.75;;;-1.22;100.00
8049;BME280;20935;42.660;23.342;2023-02-16T01:33:18;95952.63;;;-1.13;100.00
8049;BME280;20935;42.660;23.342;2023-02-16T01:36:04;95950.06;;;-1.18;100.00
8049;BME280;20935;42.660;23.342;2023-02-16T01:38:54;95950.13;;;-0.91;100.00
8049;BME280;20935;42.660;23.342;2023-02-16T01:41:55;95946.66;;;-0.59;100.00
8049;BME280;20935;42.660;23.342;2023-02-16T01:44:48;95948.47;;;-0.87;100.00
8049;BME280;20935;42.660;23.342;2023-02-16T01:47:37;95943.91;;;-1.27;100.00
8049;BME280;20935;42.660;23.342;2023-02-16T01:50:25;95940.81;;;-1.29;100.00
8049;BME280;20935;42.660;23.342;2023-02-16T01:53:17;95941.88;;;-1.30;100.00
8049;BME280;20935;42.660;23.342;2023-02-16T01:56:14;95932.06;;;-1.25;100.00
8049;BME280;20935;42.660;23.342;2023-02-16T01:59:03;95936.63;;;-1.30;100.00
8049;BME280;20935;42.660;23.342;2023-02-16T02:01:54;95934.81;;;-1.16;100.00
8049;BME280;20935;42.660;23.342;2023-02-16T02:04:43;95931.38;;;-1.30;100.00
8049;BME280;20935;42.660;23.342;2023-02-16T02:07:53;95938.06;;;-1.38;100.00
8049;BME280;20935;42.660;23.342;2023-02-16T02:10:46;95941.66;;;-1.02;100.00
8049;BME280;20935;42.660;23.342;2023-02-16T02:13:39;95942.72;;;-1.03;100.00
8049;BME280;20935;42.660;23.342;2023-02-16T02:16:26;95942.69;;;-1.16;100.00
8049;BME280;20935;42.660;23.342;2023-02-16T02:19:12;95938.00;;;-1.19;100.00
8049;BME280;20935;42.660;23.342;2023-02-16T02:22:23;95942.31;;;-1.42;100.00
8049;BME280;20935;42.660;23.342;2023-02-16T02:25:57;95940.72;;;-1.57;100.00
8049;BME280;20935;42.660;23.342;2023-02-16T02:28:56;95938.84;;;-1.37;100.00
8049;BME280;20935;42.660;23.342;2023-02-16T02:31:50;95933.25;;;-1.50;100.00
8049;BME280;20935;42.660;23.342;2023-02-16T02:34:51;95926.69;;;-1.33;100.00
8049;BME280;20935;42.660;23.342;2023-02-16T02:37:45;95933.66;;;-1.43;100.00
8049;BME280;20935;42.660;23.342;2023-02-16T02:40:40;95929.44;;;-1.25;100.00
8049;BME280;20935;42.660;23.342;2023-02-16T02:43:33;95933.44;;;-1.14;100.00
8049;BME280;20935;42.660;23.342;2023-02-16T02:46:25;95921.97;;;-1.50;100.00
8049;BME280;20935;42.660;23.342;2023-02-16T02:49:11;95933.56;;;-1.70;100.00
8049;BME280;20935;42.660;23.342;2023-02-16T02:51:57;95928.28;;;-1.51;100.00
8049;BME280;20935;42.660;23.342;2023-02-16T02:54:43;95927.81;;;-1.53;100.00
8049;BME280;20935;42.660;23.342;2023-02-16T02:57:47;95927.81;;;-1.53;100.00
8049;BME280;20935;42.660;23.342;2023-02-16T03:00:55;95936.81;;;-1.59;100.00
8049;BME280;20935;42.660;23.342;2023-02-16T03:03:44;95941.91;;;-1.17;100.00
8049;BME280;20935;42.660;23.342;2023-02-16T03:06:33;95943.50;;;-1.48;100.00
8049;BME280;20935;42.660;23.342;2023-02-16T03:09:20;95943.56;;;-1.53;100.00
8049;BME280;20935;42.660;23.342;2023-02-16T03:12:07;95942.00;;;-1.54;100.00
8049;BME280;20935;42.660;23.342;2023-02-16T03:15:12;95935.84;;;-1.63;100.00
8049;BME280;20935;42.660;23.342;2023-02-16T03:18:02;95938.75;;;-1.65;100.00
8049;BME280;20935;42.660;23.342;2023-02-16T03:21:10;95936.81;;;-1.59;100.00
8049;BME280;20935;42.660;23.342;2023-02-16T03:24:19;95931.19;;;-1.85;100.00
8049;BME280;20935;42.660;23.342;2023-02-16T03:27:26;95939.25;;;-1.81;100.00
8049;BME280;20935;42.660;23.342;2023-02-16T03:30:30;95925.13;;;-1.67;100.00
8049;BME280;20935;42.660;23.342;2023-02-16T03:33:16;95934.59;;;-1.84;100.00
8049;BME280;20935;42.660;23.342;2023-02-16T03:36:02;95925.13;;;-1.67;100.00
8049;BME280;20935;42.660;23.342;2023-02-16T03:38:50;95923.47;;;-1.63;100.00
8049;BME280;20935;42.660;23.342;2023-02-16T03:41:39;95926.72;;;-1.84;100.00
8049;BME280;20935;42.660;23.342;2023-02-16T03:44:24;95931.25;;;-1.71;100.00
8049;BME280;20935;42.660;23.342;2023-02-16T03:47:10;95936.44;;;-1.85;100.00
8049;BME280;20935;42.660;23.342;2023-02-16T03:49:55;95926.22;;;-2.05;100.00
8049;BME280;20935;42.660;23.342;2023-02-16T03:52:43;95931.94;;;-1.66;100.00
8049;BME280;20935;42.660;23.342;2023-02-16T03:55:30;95926.97;;;-1.86;100.00
8049;BME280;20935;42.660;23.342;2023-02-16T03:58:18;95939.31;;;-1.86;100.00
8049;BME280;20935;42.660;23.342;2023-02-16T04:01:03;95933.75;;;-1.48;100.00
8049;BME280;20935;42.660;23.342;2023-02-16T04:03:49;95928.69;;;-1.76;100.00
8049;BME280;20935;42.660;23.342;2023-02-16T04:06:34;95919.09;;;-1.86;100.00
8049;BME280;20935;42.660;23.342;2023-02-16T04:09:20;95917.06;;;-1.89;100.00
8049;BME280;20935;42.660;23.342;2023-02-16T04:12:08;95923.75;;;-2.15;100.00
8049;BME280;20935;42.660;23.342;2023-02-16T04:15:12;95920.19;;;-2.06;100.00
8049;BME280;20935;42.660;23.342;2023-02-16T04:17:58;95918.72;;;-2.12;100.00
8049;BME280;20935;42.660;23.342;2023-02-16T04:20:43;95915.28;;;-2.12;100.00
8049;BME280;20935;42.660;23.342;2023-02-16T04:23:29;95912.09;;;-2.09;100.00
8049;BME280;20935;42.660;23.342;2023-02-16T04:26:14;95906.50;;;-1.84;100.00
8049;BME280;20935;42.660;23.342;2023-02-16T04:29:01;95911.88;;;-1.94;100.00
8049;BME280;20935;42.660;23.342;2023-02-16T04:31:47;95918.75;;;-1.98;100.00
8049;BME280;20935;42.660;23.342;2023-02-16T04:34:32;95908.53;;;-2.18;100.00
8049;BME280;20935;42.660;23.342;2023-02-16T04:37:17;95909.00;;;-2.11;100.00
8049;BME280;20935;42.660;23.342;2023-02-16T04:40:03;95908.69;;;-2.10;100.00
8049;BME280;20935;42.660;23.342;2023-02-16T04:42:49;95924.84;;;-2.03;100.00
8049;BME280;20935;42.660;23.342;2023-02-16T04:45:36;95927.41;;;-2.16;100.00
8049;BME280;20935;42.660;23.342;2023-02-16T04:48:24;95922.38;;;-2.31;100.00
8049;BME280;20935;42.660;23.342;2023-02-16T04:51:09;95921.19;;;-2.02;100.00
8049;BME280;20935;42.660;23.342;2023-02-16T04:53:55;95923.75;;;-2.15;100.00
8049;BME280;20935;42.660;23.342;2023-02-16T04:56:42;95925.06;;;-2.18;100.00
8049;BME280;20935;42.660;23.342;2023-02-16T04:59:28;95929.75;;;-1.77;100.00
8049;BME280;20935;42.660;23.342;2023-02-16T05:02:14;95927.69;;;-2.18;100.00
8049;BME280;20935;42.660;23.342;2023-02-16T05:04:59;95931.16;;;-2.22;100.00
8049;BME280;20935;42.660;23.342;2023-02-16T05:07:45;95933.00;;;-2.23;100.00
8049;BME280;20935;42.660;23.342;2023-02-16T05:10:30;95932.72;;;-2.40;100.00
8049;BME280;20935;42.660;23.342;2023-02-16T05:13:16;95941.75;;;-2.09;100.00
8049;BME280;20935;42.660;23.342;2023-02-16T05:16:19;95942.44;;;-2.22;100.00
8049;BME280;20935;42.660;23.342;2023-02-16T05:19:09;95939.81;;;-2.22;100.00
8049;BME280;20935;42.660;23.342;2023-02-16T05:21:55;95934.56;;;-2.22;100.00
8049;BME280;20935;42.660;23.342;2023-02-16T05:24:41;95942.84;;;-2.15;100.00
8049;BME280;20935;42.660;23.342;2023-02-16T05:27:28;95946.91;;;-1.66;100.00
8049;BME280;20935;42.660;23.342;2023-02-16T05:30:14;95946.19;;;-1.91;100.00
8049;BME280;20935;42.660;23.342;2023-02-16T05:32:59;95942.28;;;-2.30;100.00
8049;BME280;20935;42.660;23.342;2023-02-16T05:35:46;95948.09;;;-2.15;100.00
8049;BME280;20935;42.660;23.342;2023-02-16T05:38:31;95952.25;;;-2.09;100.00
8049;BME280;20935;42.660;23.342;2023-02-16T05:41:17;95952.81;;;-2.12;100.00
8049;BME280;20935;42.660;23.342;2023-02-16T05:44:07;95954.81;;;-2.04;100.00
8049;BME280;20935;42.660;23.342;2023-02-16T05:46:53;95956.78;;;-1.96;100.00
8049;BME280;20935;42.660;23.342;2023-02-16T05:49:38;95957.81;;;-1.59;100.00
8049;BME280;20935;42.660;23.342;2023-02-16T05:52:25;95956.63;;;-1.85;100.00
8049;BME280;20935;42.660;23.342;2023-02-16T05:55:10;95964.59;;;-1.72;100.00
8049;BME280;20935;42.660;23.342;2023-02-16T05:57:56;95964.66;;;-1.77;100.00
8049;BME280;20935;42.660;23.342;2023-02-16T06:00:41;95961.47;;;-1.74;100.00
8049;BME280;20935;42.660;23.342;2023-02-16T06:03:27;95961.38;;;-1.18;100.00
8049;BME280;20935;42.660;23.342;2023-02-16T06:06:13;95971.38;;;-0.19;100.00
8049;BME280;20935;42.660;23.342;2023-02-16T06:08:59;95980.94;;;-0.10;100.00
8049;BME280;20935;42.660;23.342;2023-02-16T06:11:45;95974.41;;;-0.26;100.00
8049;BME280;20935;42.660;23.342;2023-02-16T06:14:30;95980.97;;;-0.37;100.00
8049;BME280;20935;42.660;23.342;2023-02-16T06:17:16;95978.03;;;-0.49;100.00
8049;BME280;20935;42.660;23.342;2023-02-16T06:20:01;95986.59;;;-0.16;100.00
8049;BME280;20935;42.660;23.342;2023-02-16T06:22:47;95994.19;;;-0.01;100.00
8049;BME280;20935;42.660;23.342;2023-02-16T06:25:34;95993.28;;;0.17;100.00
8049;BME280;20935;42.660;23.342;2023-02-16T06:28:19;95991.06;;;-0.03;100.00
8049;BME280;20935;42.660;23.342;2023-02-16T06:31:05;96004.16;;;-0.25;100.00
8049;BME280;20935;42.660;23.342;2023-02-16T06:33:51;96006.28;;;-0.14;100.00
8049;BME280;20935;42.660;23.342;2023-02-16T06:36:37;96004.03;;;0.07;100.00
8049;BME280;20935;42.660;23.342;2023-02-16T06:39:22;96007.84;;;0.51;100.00
8049;BME280;20935;42.660;23.342;2023-02-16T06:42:10;96012.19;;;0.91;100.00
8049;BME280;20935;42.660;23.342;2023-02-16T06:44:56;96013.19;;;0.81;100.00
8049;BME280;20935;42.660;23.342;2023-02-16T06:47:41;96008.97;;;1.25;100.00
8049;BME280;20935;42.660;23.342;2023-02-16T06:50:27;96012.72;;;1.32;100.00
8049;BME280;20935;42.660;23.342;2023-02-16T06:53:12;96012.34;;;1.87;100.00
8049;BME280;20935;42.660;23.342;2023-02-16T06:55:59;96007.84;;;1.96;100.00
8049;BME280;20935;42.660;23.342;2023-02-16T06:58:45;96012.34;;;1.96;100.00
8049;BME280;20935;42.660;23.342;2023-02-16T07:01:31;96005.03;;;1.84;100.00
8049;BME280;20935;42.660;23.342;2023-02-16T07:04:16;96006.25;;;2.60;100.00
8049;BME280;20935;42.660;23.342;2023-02-16T07:07:02;96013.69;;;2.32;100.00
8049;BME280;20935;42.660;23.342;2023-02-16T07:09:48;96001.56;;;2.40;100.00
8049;BME280;20935;42.660;23.342;2023-02-16T07:12:35;96011.19;;;2.27;100.00
8049;BME280;20935;42.660;23.342;2023-02-16T07:15:22;96002.31;;;2.23;100.00
8049;BME280;20935;42.660;23.342;2023-02-16T07:18:08;95989.91;;;2.32;100.00
8049;BME280;20935;42.660;23.342;2023-02-16T07:20:53;95996.59;;;2.73;100.00
8049;BME280;20935;42.660;23.342;2023-02-16T07:23:39;95984.41;;;3.15;100.00
8049;BME280;20935;42.660;23.342;2023-02-16T07:26:24;95984.78;;;2.62;100.00
8049;BME280;20935;42.660;23.342;2023-02-16T07:29:09;95979.88;;;3.24;99.32
8049;BME280;20935;42.660;23.342;2023-02-16T07:31:58;95975.59;;;3.02;100.00
8049;BME280;20935;42.660;23.342;2023-02-16T07:34:44;95972.03;;;2.55;100.00
8049;BME280;20935;42.660;23.342;2023-02-16T07:37:32;95980.41;;;2.83;100.00
8049;BME280;20935;42.660;23.342;2023-02-16T07:40:18;95981.34;;;3.51;99.77
8049;BME280;20935;42.660;23.342;2023-02-16T07:43:04;95983.38;;;3.54;97.82
8049;BME280;20935;42.660;23.342;2023-02-16T07:45:57;95976.84;;;4.39;92.61
8049;BME280;20935;42.660;23.342;2023-02-16T07:48:46;95975.19;;;3.29;98.85
8049;BME280;20935;42.660;23.342;2023-02-16T07:51:31;95979.38;;;3.77;96.23
8049;BME280;20935;42.660;23.342;2023-02-16T07:54:17;95980.28;;;4.60;89.71
8049;BME280;20935;42.660;23.342;2023-02-16T07:57:02;95980.19;;;4.28;92.75
8049;BME280;20935;42.660;23.342;2023-02-16T07:59:49;95991.06;;;4.35;89.09
8049;BME280;20935;42.660;23.342;2023-02-16T08:02:35;95983.94;;;3.68;92.76
8049;BME280;20935;42.660;23.342;2023-02-16T08:05:22;96004.41;;;3.88;94.83
8049;BME280;20935;42.660;23.342;2023-02-16T08:08:07;96000.06;;;4.42;91.00
8049;BME280;20935;42.660;23.342;2023-02-16T08:10:53;95998.47;;;4.50;89.31
8049;BME280;20935;42.660;23.342;2023-02-16T08:13:39;95996.47;;;5.21;84.03
8049;BME280;20935;42.660;23.342;2023-02-16T08:16:26;95995.81;;;5.36;84.35
8049;BME280;20935;42.660;23.342;2023-02-16T08:19:12;95994.50;;;4.77;84.87
8049;BME280;20935;42.660;23.342;2023-02-16T08:22:00;96007.69;;;5.51;82.23
8049;BME280;20935;42.660;23.342;2023-02-16T08:24:47;95999.66;;;5.27;80.22
8049;BME280;20935;42.660;23.342;2023-02-16T08:27:33;96003.44;;;5.38;80.75
8049;BME280;20935;42.660;23.342;2023-02-16T08:30:19;96004.03;;;5.43;82.05
8049;BME280;20935;42.660;23.342;2023-02-16T08:33:07;96007.94;;;5.70;78.35
8049;BME280;20935;42.660;23.342;2023-02-16T08:35:53;96011.44;;;5.50;77.77
8049;BME280;20935;42.660;23.342;2023-02-16T08:38:40;96009.19;;;4.53;85.18
8049;BME280;20935;42.660;23.342;2023-02-16T08:41:29;96006.81;;;5.14;82.51
8049;BME280;20935;42.660;23.342;2023-02-16T08:44:16;96004.31;;;5.17;84.34
8049;BME280;20935;42.660;23.342;2023-02-16T08:47:02;95996.88;;;5.23;82.10
8049;BME280;20935;42.660;23.342;2023-02-16T08:49:47;96005.03;;;6.08;77.30
8049;BME280;20935;42.660;23.342;2023-02-16T08:52:36;96003.44;;;5.83;78.59
8049;BME280;20935;42.660;23.342;2023-02-16T08:55:27;95999.28;;;5.49;80.64
8049;BME280;20935;42.660;23.342;2023-02-16T08:58:14;96002.88;;;5.65;78.11
8049;BME280;20935;42.660;23.342;2023-02-16T09:01:04;95996.19;;;5.59;79.64
8049;BME280;20935;42.660;23.342;2023-02-16T09:03:51;95994.38;;;6.20;78.41
8049;BME280;20935;42.660;23.342;2023-02-16T09:06:42;95992.13;;;5.86;78.02
8049;BME280;20935;42.660;23.342;2023-02-16T09:09:28;95993.59;;;6.20;77.52
8049;BME280;20935;42.660;23.342;2023-02-16T09:12:15;95993.75;;;6.63;76.25
8049;BME280;20935;42.660;23.342;2023-02-16T09:15:01;95996.94;;;6.17;76.66
8049;BME280;20935;42.660;23.342;2023-02-16T09:17:47;95985.63;;;6.20;76.62
8049;BME280;20935;42.660;23.342;2023-02-16T09:20:36;95985.63;;;6.32;75.13
8049;BME280;20935;42.660;23.342;2023-02-16T09:23:22;95985.13;;;6.54;76.64
8049;BME280;20935;42.660;23.342;2023-02-16T09:26:08;95974.91;;;6.68;75.53
8049;BME280;20935;42.660;23.342;2023-02-16T09:28:55;95983.97;;;6.15;76.30
8049;BME280;20935;42.660;23.342;2023-02-16T09:31:41;95975.50;;;6.37;76.93
8049;BME280;20935;42.660;23.342;2023-02-16T09:34:27;95973.84;;;6.45;77.35
8049;BME280;20935;42.660;23.342;2023-02-16T09:37:16;95971.06;;;6.81;74.31
8049;BME280;20935;42.660;23.342;2023-02-16T09:40:02;95969.44;;;6.77;74.24
8049;BME280;20935;42.660;23.342;2023-02-16T09:42:57;95969.31;;;7.44;73.39
8049;BME280;20935;42.660;23.342;2023-02-16T09:45:49;95970.56;;;7.78;67.64
8049;BME280;20935;42.660;23.342;2023-02-16T09:48:39;95968.53;;;6.45;74.96
8049;BME280;20935;42.660;23.342;2023-02-16T09:51:31;95954.25;;;7.21;72.72
8049;BME280;20935;42.660;23.342;2023-02-16T09:54:24;95962.47;;;7.75;68.14
8049;BME280;20935;42.660;23.342;2023-02-16T09:57:20;95971.63;;;8.09;65.96
8049;BME280;20935;42.660;23.342;2023-02-16T10:00:17;95949.28;;;7.97;66.25
8049;BME280;20935;42.660;23.342;2023-02-16T10:06:26;95940.44;;;8.28;64.02
8049;BME280;20935;42.660;23.342;2023-02-16T10:09:15;95940.94;;;8.69;62.99
8049;BME280;20935;42.660;23.342;2023-02-16T10:12:05;95937.22;;;8.73;61.26
8049;BME280;20935;42.660;23.342;2023-02-16T10:14:55;95940.38;;;8.98;61.89
8049;BME280;20935;42.660;23.342;2023-02-16T10:17:46;95929.53;;;8.18;63.23
8049;BME280;20935;42.660;23.342;2023-02-16T10:20:36;95934.69;;;7.76;65.94
8049;BME280;20935;42.660;23.342;2023-02-16T10:23:31;95917.06;;;7.71;65.00
8049;BME280;20935;42.660;23.342;2023-02-16T10:26:21;95922.81;;;7.73;64.52
8049;BME280;20935;42.660;23.342;2023-02-16T10:29:13;95918.13;;;8.01;63.83
8049;BME280;20935;42.660;23.342;2023-02-16T10:32:14;95917.09;;;8.41;63.09
8049;BME280;20935;42.660;23.342;2023-02-16T10:35:10;95916.28;;;7.86;64.09
8049;BME280;20935;42.660;23.342;2023-02-16T10:38:03;95918.50;;;8.92;61.31
8049;BME280;20935;42.660;23.342;2023-02-16T10:40:55;95914.59;;;9.28;59.12
8049;BME280;20935;42.660;23.342;2023-02-16T10:43:51;95905.69;;;9.21;58.96
8049;BME280;20935;42.660;23.342;2023-02-16T10:46:39;95909.56;;;9.23;57.67
8049;BME280;20935;42.660;23.342;2023-02-16T10:49:28;95901.44;;;9.39;57.85
8049;BME280;20935;42.660;23.342;2023-02-16T10:52:15;95907.09;;;9.15;57.51
8049;BME280;20935;42.660;23.342;2023-02-16T10:55:03;95898.44;;;9.21;58.10
8049;BME280;20935;42.660;23.342;2023-02-16T10:57:53;95896.03;;;8.93;58.34
8049;BME280;20935;42.660;23.342;2023-02-16T11:00:46;95884.88;;;8.49;59.79
8049;BME280;20935;42.660;23.342;2023-02-16T11:03:42;95888.44;;;8.76;58.34
8049;BME280;20935;42.660;23.342;2023-02-16T11:06:30;95887.09;;;9.28;56.98
8049;BME280;20935;42.660;23.342;2023-02-16T11:09:26;95872.31;;;8.92;58.51
8049;BME280;20935;42.660;23.342;2023-02-16T11:12:22;95867.50;;;9.69;56.19
8049;BME280;20935;42.660;23.342;2023-02-16T11:15:23;95868.00;;;9.52;56.93
8049;BME280;20935;42.660;23.342;2023-02-16T11:18:24;95868.25;;;9.93;55.38
8049;BME280;20935;42.660;23.342;2023-02-16T11:21:15;95859.09;;;9.44;56.12
8049;BME280;20935;42.660;23.342;2023-02-16T11:24:01;95871.69;;;9.44;57.21
8049;BME280;20935;42.660;23.342;2023-02-16T11:26:58;95856.53;;;9.52;56.89
8049;BME280;20935;42.660;23.342;2023-02-16T11:29:46;95858.09;;;10.05;56.00
8049;BME280;20935;42.660;23.342;2023-02-16T11:32:32;95852.97;;;9.93;55.18
8049;BME280;20935;42.660;23.342;2023-02-16T11:35:18;95847.13;;;10.14;55.01
8049;BME280;20935;42.660;23.342;2023-02-16T11:38:03;95845.22;;;10.14;54.33
8049;BME280;20935;42.660;23.342;2023-02-16T11:40:51;95847.88;;;9.58;54.96
8049;BME280;20935;42.660;23.342;2023-02-16T11:43:40;95836.59;;;9.46;55.15
8049;BME280;20935;42.660;23.342;2023-02-16T11:46:37;95834.16;;;10.16;54.41
8049;BME280;20935;42.660;23.342;2023-02-16T11:49:31;95839.41;;;9.56;55.22
8049;BME280;20935;42.660;23.342;2023-02-16T11:52:29;95830.25;;;10.10;53.80
8049;BME280;20935;42.660;23.342;2023-02-16T11:55:27;95834.22;;;9.93;54.30
8049;BME280;20935;42.660;23.342;2023-02-16T11:58:17;95823.19;;;9.95;53.87
8049;BME280;20935;42.660;23.342;2023-02-16T12:01:15;95819.47;;;9.50;54.67
8049;BME280;20935;42.660;23.342;2023-02-16T12:04:11;95817.28;;;10.42;55.33
8049;BME280;20935;42.660;23.342;2023-02-16T12:07:11;95814.44;;;10.61;53.36
8049;BME280;20935;42.660;23.342;2023-02-16T12:10:05;95807.50;;;10.93;52.66
8049;BME280;20935;42.660;23.342;2023-02-16T12:12:59;95811.72;;;10.57;52.04
8049;BME280;20935;42.660;23.342;2023-02-16T12:15:53;95806.19;;;10.43;52.53
8049;BME280;20935;42.660;23.342;2023-02-16T12:18:49;95806.09;;;10.32;52.34
8049;BME280;20935;42.660;23.342;2023-02-16T12:21:41;95797.81;;;10.81;52.37
8049;BME280;20935;42.660;23.342;2023-02-16T12:24:42;95788.44;;;11.49;50.88
8049;BME280;20935;42.660;23.342;2023-02-16T12:27:36;95783.56;;;10.70;51.04
8049;BME280;20935;42.660;23.342;2023-02-16T12:30:35;95788.25;;;11.28;50.29
8049;BME280;20935;42.660;23.342;2023-02-16T12:33:38;95778.69;;;11.82;49.30
8049;BME280;20935;42.660;23.342;2023-02-16T12:36:32;95774.81;;;11.75;49.03
8049;BME280;20935;42.660;23.342;2023-02-16T12:39:29;95768.31;;;11.25;49.64
8049;BME280;20935;42.660;23.342;2023-02-16T12:42:42;95765.50;;;11.08;49.71
8049;BME280;20935;42.660;23.342;2023-02-16T12:45:34;95764.63;;;10.97;49.88
8049;BME280;20935;42.660;23.342;2023-02-16T12:48:32;95755.13;;;11.54;48.90
8049;BME280;20935;42.660;23.342;2023-02-16T12:51:26;95758.59;;;11.07;49.15
8049;BME280;20935;42.660;23.342;2023-02-16T12:54:16;95744.16;;;11.18;49.14
8049;BME280;20935;42.660;23.342;2023-02-16T12:57:12;95747.72;;;10.86;50.12
8049;BME280;20935;42.660;23.342;2023-02-16T13:00:04;95738.69;;;11.08;49.26
8049;BME280;20935;42.660;23.342;2023-02-16T13:03:10;95745.81;;;10.86;49.60
8049;BME280;20935;42.660;23.342;2023-02-16T13:06:10;95733.69;;;11.61;49.97
8049;BME280;20935;42.660;23.342;2023-02-16T13:09:09;95733.16;;;12.03;47.92
8049;BME280;20935;42.660;23.342;2023-02-16T13:11:58;95732.78;;;12.08;47.55
8049;BME280;20935;42.660;23.342;2023-02-16T13:14:54;95728.28;;;11.54;48.06
8049;BME280;20935;42.660;23.342;2023-02-16T13:17:44;95720.72;;;11.12;49.36
8049;BME280;20935;42.660;23.342;2023-02-16T13:20:32;95721.47;;;11.70;48.20
8049;BME280;20935;42.660;23.342;2023-02-16T13:23:36;95719.56;;;11.71;47.85
8049;BME280;20935;42.660;23.342;2023-02-16T13:26:41;95724.31;;;12.02;47.57
8049;BME280;20935;42.660;23.342;2023-02-16T13:30:01;95714.97;;;11.71;48.02
8049;BME280;20935;42.660;23.342;2023-02-16T13:33:07;95713.69;;;11.48;48.80
8049;BME280;20935;42.660;23.342;2023-02-16T13:36:24;95709.88;;;11.52;48.33
8049;BME280;20935;42.660;23.342;2023-02-16T13:39:29;95709.84;;;11.49;48.68
8049;BME280;20935;42.660;23.342;2023-02-16T13:45:43;95708.91;;;11.78;47.75
8049;BME280;20935;42.660;23.342;2023-02-16T13:48:44;95698.75;;;11.50;48.76
8049;BME280;20935;42.660;23.342;2023-02-16T13:51:40;95696.50;;;11.59;48.43
8049;BME280;20935;42.660;23.342;2023-02-16T13:54:29;95694.09;;;11.44;48.14
8049;BME280;20935;42.660;23.342;2023-02-16T14:00:47;95696.56;;;11.08;48.84
8049;BME280;20935;42.660;23.342;2023-02-16T14:03:36;95695.34;;;11.60;48.33
8049;BME280;20935;42.660;23.342;2023-02-16T14:06:31;95691.47;;;11.51;49.47
8049;BME280;20935;42.660;23.342;2023-02-16T14:09:44;95695.06;;;11.72;48.23
8049;BME280;20935;42.660;23.342;2023-02-16T14:12:37;95690.16;;;11.96;47.67
8049;BME280;20935;42.660;23.342;2023-02-16T14:15:23;95689.47;;;12.09;47.45
8049;BME280;20935;42.660;23.342;2023-02-16T14:18:25;95697.38;;;11.77;47.21
8049;BME280;20935;42.660;23.342;2023-02-16T14:21:30;95689.59;;;11.58;47.49
8049;BME280;20935;42.660;23.342;2023-02-16T14:24:28;95684.59;;;11.53;48.46
8049;BME280;20935;42.660;23.342;2023-02-16T14:27:42;95685.53;;;11.17;48.07
8049;BME280;20935;42.660;23.342;2023-02-16T14:30:30;95679.34;;;11.06;48.37
8049;BME280;20935;42.660;23.342;2023-02-16T14:33:20;95675.16;;;11.15;50.40
8049;BME280;20935;42.660;23.342;2023-02-16T14:36:16;95679.44;;;11.27;49.47
8049;BME280;20935;42.660;23.342;2023-02-16T14:39:02;95684.91;;;11.41;48.50
8049;BME280;20935;42.660;23.342;2023-02-16T14:41:47;95685.25;;;11.32;48.62
8049;BME280;20935;42.660;23.342;2023-02-16T14:44:51;95683.78;;;11.42;48.00
8049;BME280;20935;42.660;23.342;2023-02-16T14:47:46;95684.13;;;11.37;47.99
8049;BME280;20935;42.660;23.342;2023-02-16T14:50:47;95678.72;;;11.30;48.32
8049;BME280;20935;42.660;23.342;2023-02-16T14:54:17;95684.72;;;11.09;48.69
8049;BME280;20935;42.660;23.342;2023-02-16T14:57:12;95671.34;;;11.16;48.96
8049;BME280;20935;42.660;23.342;2023-02-16T15:00:05;95671.31;;;11.09;49.85
8049;BME280;20935;42.660;23.342;2023-02-16T15:02:59;95674.75;;;11.10;49.26
8049;BME280;20935;42.660;23.342;2023-02-16T15:05:51;95670.19;;;11.14;48.70
8049;BME280;20935;42.660;23.342;2023-02-16T15:08:42;95672.91;;;11.17;48.58
8049;BME280;20935;42.660;23.342;2023-02-16T15:11:34;95673.25;;;11.12;49.22